sensor_id;sensor_type;location;lat;lon;timestamp;pressure;altitude;pressure_sealevel;temperature;humidity
84760;BME280;74983;51.084;11.086;2023-12-22T13:55:58;97948.53;;;5.92;82.58
84760;BME280;74983;51.084;11.086;2023-12-22T13:58:25;97938.06;;;5.94;82.56
84760;BME280;74983;51.084;11.086;2023-12-22T14:00:51;97944.75;;;5.96;81.91
84760;BME280;74983;51.084;11.086;2023-12-22T14:03:17;97948.00;;;5.98;81.06
84760;BME280;74983;51.084;11.086;2023-12-22T14:05:43;97961.47;;;5.92;82.21
84760;BME280;74983;51.084;11.086;2023-12-22T14:08:08;97945.69;;;5.95;80.97
84760;BME280;74983;51.084;11.086;2023-12-22T14:10:34;97940.78;;;5.92;81.79
84760;BME280;74983;51.084;11.086;2023-12-22T14:13:00;97948.13;;;5.97;80.33
84760;BME280;74983;51.084;11.086;2023-12-22T14:15:25;97946.94;;;6.01;79.98
84760;BME280;74983;51.084;11.086;2023-12-22T14:17:54;97955.75;;;5.98;80.75
84760;BME280;74983;51.084;11.086;2023-12-22T14:20:19;97946.53;;;5.96;80.49
84760;BME280;74983;51.084;11.086;2023-12-22T14:22:45;97961.88;;;5.97;80.43
84760;BME280;74983;51.084;11.086;2023-12-22T14:25:11;97958.91;;;6.02;79.73
84760;BME280;74983;51.084;11.086;2023-12-22T14:27:36;97962.84;;;5.96;80.54
84760;BME280;74983;51.084;11.086;2023-12-22T14:30:02;97961.63;;;6.00;79.53
84760;BME280;74983;51.084;11.086;2023-12-22T14:32:27;97976.44;;;5.98;79.88
84760;BME280;74983;51.084;11.086;2023-12-22T14:34:54;97973.97;;;5.97;80.81
84760;BME280;74983;51.084;11.086;2023-12-22T14:37:20;97981.16;;;5.93;80.79
84760;BME280;74983;51.084;11.086;2023-12-22T14:39:46;97984.56;;;5.94;81.61
84760;BME280;74983;51.084;11.086;2023-12-22T14:42:11;97985.53;;;5.93;81.97
84760;BME280;74983;51.084;11.086;2023-12-22T14:44:36;97988.22;;;5.91;81.77
84760;BME280;74983;51.084;11.086;2023-12-22T14:47:04;97999.00;;;5.75;83.76
84760;BME280;74983;51.084;11.086;2023-12-22T14:49:29;97993.16;;;5.73;83.51
84760;BME280;74983;51.084;11.086;2023-12-22T14:51:54;97995.56;;;5.65;84.11
84760;BME280;74983;51.084;11.086;2023-12-22T14:54:22;97993.50;;;5.59;85.21
84760;BME280;74983;51.084;11.086;2023-12-22T14:56:47;97995.00;;;5.62;84.74
84760;BME280;74983;51.084;11.086;2023-12-22T14:59:14;98005.44;;;5.60;85.21
84760;BME280;74983;51.084;11.086;2023-12-22T15:01:43;97999.84;;;5.55;85.82
84760;BME280;74983;51.084;11.086;2023-12-22T15:04:08;97999.03;;;5.55;85.85
84760;BME280;74983;51.084;11.086;2023-12-22T15:06:37;97988.84;;;5.53;86.31
84760;BME280;74983;51.084;11.086;2023-12-22T15:09:03;97997.34;;;5.44;87.19
84760;BME280;74983;51.084;11.086;2023-12-22T15:11:29;97997.34;;;5.44;87.42
84760;BME280;74983;51.084;11.086;2023-12-22T15:13:54;97990.25;;;5.37;87.88
84760;BME280;74983;51.084;11.086;2023-12-22T15:16:19;97997.09;;;5.27;88.45
84760;BME280;74983;51.084;11.086;2023-12-22T15:18:44;97986.88;;;5.25;88.26
84760;BME280;74983;51.084;11.086;2023-12-22T15:21:19;97999.03;;;5.14;89.46
84760;BME280;74983;51.084;11.086;2023-12-22T15:23:44;97984.38;;;5.14;88.99
84760;BME280;74983;51.084;11.086;2023-12-22T15:26:19;97985.31;;;5.13;87.89
84760;BME280;74983;51.084;11.086;2023-12-22T15:28:45;97989.06;;;5.09;88.98
84760;BME280;74983;51.084;11.086;2023-12-22T15:31:10;97987.13;;;5.02;90.25
84760;BME280;74983;51.084;11.086;2023-12-22T15:33:36;97993.22;;;5.01;89.43
84760;BME280;74983;51.084;11.086;2023-12-22T15:36:01;97986.78;;;4.95;89.46
84760;BME280;74983;51.084;11.086;2023-12-22T15:38:26;97995.16;;;4.88;91.08
84760;BME280;74983;51.084;11.086;2023-12-22T15:40:52;97984.97;;;4.86;90.87
84760;BME280;74983;51.084;11.086;2023-12-22T15:43:17;98002.47;;;4.83;91.60
84760;BME280;74983;51.084;11.086;2023-12-22T15:45:42;98000.81;;;4.82;91.94
84760;BME280;74983;51.084;11.086;2023-12-22T15:48:08;97998.47;;;4.79;91.85
84760;BME280;74983;51.084;11.086;2023-12-22T15:50:33;98007.28;;;4.76;92.44
84760;BME280;74983;51.084;11.086;2023-12-22T15:52:59;97997.06;;;4.75;92.06
84760;BME280;74983;51.084;11.086;2023-12-22T15:55:24;97993.72;;;4.74;92.18
84760;BME280;74983;51.084;11.086;2023-12-22T15:57:49;97999.78;;;4.73;93.17
84760;BME280;74983;51.084;11.086;2023-12-22T16:00:15;98003.44;;;4.71;92.83
84760;BME280;74983;51.084;11.086;2023-12-22T16:02:40;97999.66;;;4.75;92.25
84760;BME280;74983;51.084;11.086;2023-12-22T16:05:06;97998.88;;;4.74;92.39
84760;BME280;74983;51.084;11.086;2023-12-22T16:07:33;97995.81;;;4.69;93.80
84760;BME280;74983;51.084;11.086;2023-12-22T16:09:59;97993.00;;;4.72;93.41
84760;BME280;74983;51.084;11.086;2023-12-22T16:12:24;97999.09;;;4.71;93.79
84760;BME280;74983;51.084;11.086;2023-12-22T16:14:49;97996.38;;;4.73;93.86
84760;BME280;74983;51.084;11.086;2023-12-22T16:17:14;98003.63;;;4.79;93.10
84760;BME280;74983;51.084;11.086;2023-12-22T16:19:40;97996.94;;;4.76;93.75
84760;BME280;74983;51.084;11.086;2023-12-22T16:22:06;97992.75;;;4.75;94.39
84760;BME280;74983;51.084;11.086;2023-12-22T16:24:31;97991.78;;;4.76;93.91
84760;BME280;74983;51.084;11.086;2023-12-22T16:26:56;97974.44;;;4.78;94.22
84760;BME280;74983;51.084;11.086;2023-12-22T16:29:21;97985.34;;;4.82;93.85
84760;BME280;74983;51.084;11.086;2023-12-22T16:31:47;97971.66;;;4.81;93.82
84760;BME280;74983;51.084;11.086;2023-12-22T16:34:12;97973.16;;;4.84;93.99
84760;BME280;74983;51.084;11.086;2023-12-22T16:36:37;97973.97;;;4.84;93.56
84760;BME280;74983;51.084;11.086;2023-12-22T16:39:02;97975.16;;;4.80;93.65
84760;BME280;74983;51.084;11.086;2023-12-22T16:41:28;97974.41;;;4.89;92.99
84760;BME280;74983;51.084;11.086;2023-12-22T16:43:54;97981.19;;;4.90;92.57
84760;BME280;74983;51.084;11.086;2023-12-22T16:46:20;97974.41;;;4.89;93.17
84760;BME280;74983;51.084;11.086;2023-12-22T16:48:45;97979.13;;;4.84;93.76
84760;BME280;74983;51.084;11.086;2023-12-22T16:51:11;97981.19;;;4.90;93.09
84760;BME280;74983;51.084;11.086;2023-12-22T16:53:36;97985.44;;;4.91;92.85
84760;BME280;74983;51.084;11.086;2023-12-22T16:56:02;97981.53;;;4.97;91.88
84760;BME280;74983;51.084;11.086;2023-12-22T16:58:27;97986.56;;;4.98;92.27
84760;BME280;74983;51.084;11.086;2023-12-22T17:00:52;97975.03;;;5.02;91.77
84760;BME280;74983;51.084;11.086;2023-12-22T17:03:18;97962.72;;;5.06;91.56
84760;BME280;74983;51.084;11.086;2023-12-22T17:05:43;97984.31;;;5.05;92.32
84760;BME280;74983;51.084;11.086;2023-12-22T17:08:08;97975.50;;;5.07;91.45
84760;BME280;74983;51.084;11.086;2023-12-22T17:10:35;97974.06;;;5.14;91.15
84760;BME280;74983;51.084;11.086;2023-12-22T17:13:00;97971.09;;;5.19;91.09
84760;BME280;74983;51.084;11.086;2023-12-22T17:15:26;97974.25;;;5.22;91.61
84760;BME280;74983;51.084;11.086;2023-12-22T17:17:51;97970.28;;;5.18;91.97
84760;BME280;74983;51.084;11.086;2023-12-22T17:20:17;97973.13;;;5.15;92.63
84760;BME280;74983;51.084;11.086;2023-12-22T17:22:42;97975.06;;;5.23;91.90
84760;BME280;74983;51.084;11.086;2023-12-22T17:25:08;97989.13;;;5.30;91.57
84760;BME280;74983;51.084;11.086;2023-12-22T17:27:33;98003.19;;;5.26;92.39
84760;BME280;74983;51.084;11.086;2023-12-22T17:29:58;97998.59;;;5.29;92.09
84760;BME280;74983;51.084;11.086;2023-12-22T17:32:23;97982.16;;;5.30;92.13
84760;BME280;74983;51.084;11.086;2023-12-22T17:34:49;97974.56;;;5.29;92.63
84760;BME280;74983;51.084;11.086;2023-12-22T17:37:14;97971.41;;;5.25;93.64
84760;BME280;74983;51.084;11.086;2023-12-22T17:39:39;97969.25;;;5.30;92.95
84760;BME280;74983;51.084;11.086;2023-12-22T17:42:05;97963.03;;;5.33;92.56
84760;BME280;74983;51.084;11.086;2023-12-22T17:44:30;97948.56;;;5.41;92.05
84760;BME280;74983;51.084;11.086;2023-12-22T17:46:55;97941.94;;;5.48;92.04
84760;BME280;74983;51.084;11.086;2023-12-22T17:49:21;97975.50;;;5.48;91.28
84760;BME280;74983;51.084;11.086;2023-12-22T17:51:46;97965.03;;;5.50;91.86
84760;BME280;74983;51.084;11.086;2023-12-22T17:54:12;97968.00;;;5.45;92.47
84760;BME280;74983;51.084;11.086;2023-12-22T17:56:37;97981.97;;;5.43;92.36
84760;BME280;74983;51.084;11.086;2023-12-22T17:59:02;97987.00;;;5.44;91.09
84760;BME280;74983;51.084;11.086;2023-12-22T18:01:28;97982.25;;;5.40;91.49
84760;BME280;74983;51.084;11.086;2023-12-22T18:03:54;97994.88;;;5.43;92.52
84760;BME280;74983;51.084;11.086;2023-12-22T18:06:20;97989.59;;;5.44;90.99
84760;BME280;74983;51.084;11.086;2023-12-22T18:08:49;98011.25;;;5.53;90.50
84760;BME280;74983;51.084;11.086;2023-12-22T18:11:14;98007.97;;;5.51;91.44
84760;BME280;74983;51.084;11.086;2023-12-22T18:13:40;98003.63;;;5.51;91.10
84760;BME280;74983;51.084;11.086;2023-12-22T18:16:05;98018.84;;;5.54;91.05
84760;BME280;74983;51.084;11.086;2023-12-22T18:18:30;98031.47;;;5.48;91.54
84760;BME280;74983;51.084;11.086;2023-12-22T18:20:55;98014.03;;;5.61;90.30
84760;BME280;74983;51.084;11.086;2023-12-22T18:23:21;98022.19;;;5.66;90.01
84760;BME280;74983;51.084;11.086;2023-12-22T18:25:47;98034.97;;;5.67;89.95
84760;BME280;74983;51.084;11.086;2023-12-22T18:28:12;98027.50;;;5.64;90.58
84760;BME280;74983;51.084;11.086;2023-12-22T18:30:37;97985.44;;;5.73;89.94
84760;BME280;74983;51.084;11.086;2023-12-22T18:33:03;97995.09;;;5.81;88.27
84760;BME280;74983;51.084;11.086;2023-12-22T18:35:28;97999.00;;;5.96;86.77
84760;BME280;74983;51.084;11.086;2023-12-22T18:37:53;98001.09;;;5.82;88.21
84760;BME280;74983;51.084;11.086;2023-12-22T18:40:18;97989.69;;;5.84;87.00
84760;BME280;74983;51.084;11.086;2023-12-22T18:42:44;98004.41;;;5.93;86.76
84760;BME280;74983;51.084;11.086;2023-12-22T18:45:09;98015.66;;;5.83;87.06
84760;BME280;74983;51.084;11.086;2023-12-22T18:47:34;98014.25;;;5.79;87.04
84760;BME280;74983;51.084;11.086;2023-12-22T18:50:00;98022.06;;;5.88;86.98
84760;BME280;74983;51.084;11.086;2023-12-22T18:52:28;98029.00;;;5.88;85.63
84760;BME280;74983;51.084;11.086;2023-12-22T18:54:54;98027.41;;;5.75;86.74
84760;BME280;74983;51.084;11.086;2023-12-22T18:57:20;98032.22;;;5.80;86.68
84760;BME280;74983;51.084;11.086;2023-12-22T18:59:45;98031.25;;;5.81;85.98
84760;BME280;74983;51.084;11.086;2023-12-22T19:02:10;98003.72;;;5.91;86.07
84760;BME280;74983;51.084;11.086;2023-12-22T19:04:36;98010.13;;;5.97;84.68
84760;BME280;74983;51.084;11.086;2023-12-22T19:07:01;98020.53;;;6.06;83.72
84760;BME280;74983;51.084;11.086;2023-12-22T19:09:27;98034.63;;;5.93;85.16
84760;BME280;74983;51.084;11.086;2023-12-22T19:11:52;98046.56;;;5.94;84.46
84760;BME280;74983;51.084;11.086;2023-12-22T19:14:17;98055.31;;;6.02;83.85
84760;BME280;74983;51.084;11.086;2023-12-22T19:16:42;98043.59;;;5.98;83.49
84760;BME280;74983;51.084;11.086;2023-12-22T19:19:08;98035.97;;;5.97;83.54
84760;BME280;74983;51.084;11.086;2023-12-22T19:21:33;98058.34;;;6.07;82.00
84760;BME280;74983;51.084;11.086;2023-12-22T19:23:58;98056.16;;;6.03;82.41
84760;BME280;74983;51.084;11.086;2023-12-22T19:26:24;98056.34;;;5.90;82.71
84760;BME280;74983;51.084;11.086;2023-12-22T19:28:49;98049.09;;;5.84;82.95
84760;BME280;74983;51.084;11.086;2023-12-22T19:31:15;98063.41;;;5.88;82.86
84760;BME280;74983;51.084;11.086;2023-12-22T19:33:40;98069.28;;;5.79;83.67
84760;BME280;74983;51.084;11.086;2023-12-22T19:36:06;98063.41;;;5.88;81.73
84760;BME280;74983;51.084;11.086;2023-12-22T19:38:31;98058.38;;;5.87;81.35
84760;BME280;74983;51.084;11.086;2023-12-22T19:40:57;98062.56;;;5.88;81.25
84760;BME280;74983;51.084;11.086;2023-12-22T19:43:22;98055.38;;;5.91;80.86
84760;BME280;74983;51.084;11.086;2023-12-22T19:45:47;98058.84;;;5.81;81.23
84760;BME280;74983;51.084;11.086;2023-12-22T19:48:13;98048.47;;;5.92;80.45
84760;BME280;74983;51.084;11.086;2023-12-22T19:50:38;98052.00;;;5.91;80.81
84760;BME280;74983;51.084;11.086;2023-12-22T19:53:03;98046.97;;;5.89;80.77
84760;BME280;74983;51.084;11.086;2023-12-22T19:55:31;98078.13;;;5.97;79.99
84760;BME280;74983;51.084;11.086;2023-12-22T19:57:56;98078.84;;;5.99;79.38
84760;BME280;74983;51.084;11.086;2023-12-22T20:00:22;98088.50;;;6.07;79.42
84760;BME280;74983;51.084;11.086;2023-12-22T20:02:47;98110.56;;;6.11;78.12
84760;BME280;74983;51.084;11.086;2023-12-22T20:05:13;98123.44;;;6.01;79.29
84760;BME280;74983;51.084;11.086;2023-12-22T20:07:39;98139.38;;;6.06;79.15
84760;BME280;74983;51.084;11.086;2023-12-22T20:10:05;98124.75;;;6.16;78.37
84760;BME280;74983;51.084;11.086;2023-12-22T20:12:31;98125.66;;;6.06;79.84
84760;BME280;74983;51.084;11.086;2023-12-22T20:15:00;98117.63;;;6.09;79.41
84760;BME280;74983;51.084;11.086;2023-12-22T20:17:25;98122.09;;;6.07;79.38
84760;BME280;74983;51.084;11.086;2023-12-22T20:19:51;98114.56;;;6.15;78.43
84760;BME280;74983;51.084;11.086;2023-12-22T20:22:17;98116.16;;;6.16;79.18
84760;BME280;74983;51.084;11.086;2023-12-22T20:24:42;98117.06;;;6.05;79.42
84760;BME280;74983;51.084;11.086;2023-12-22T20:27:07;98106.28;;;6.00;80.47
84760;BME280;74983;51.084;11.086;2023-12-22T20:29:33;98123.44;;;6.01;81.28
84760;BME280;74983;51.084;11.086;2023-12-22T20:31:58;98120.22;;;6.09;79.59
84760;BME280;74983;51.084;11.086;2023-12-22T20:34:24;98127.47;;;6.15;79.01
84760;BME280;74983;51.084;11.086;2023-12-22T20:36:49;98114.16;;;6.19;78.36
84760;BME280;74983;51.084;11.086;2023-12-22T20:39:14;98129.44;;;6.22;78.05
84760;BME280;74983;51.084;11.086;2023-12-22T20:41:40;98129.66;;;6.19;78.51
84760;BME280;74983;51.084;11.086;2023-12-22T20:44:06;98113.72;;;6.14;79.05
84760;BME280;74983;51.084;11.086;2023-12-22T20:46:31;98127.63;;;6.23;78.54
84760;BME280;74983;51.084;11.086;2023-12-22T20:48:57;98136.22;;;6.23;78.85
84760;BME280;74983;51.084;11.086;2023-12-22T20:51:22;98137.97;;;6.23;78.96
84760;BME280;74983;51.084;11.086;2023-12-22T20:53:47;98144.53;;;6.27;78.49
84760;BME280;74983;51.084;11.086;2023-12-22T20:56:17;98143.84;;;6.25;78.77
84760;BME280;74983;51.084;11.086;2023-12-22T20:58:43;98147.13;;;6.27;78.55
84760;BME280;74983;51.084;11.086;2023-12-22T21:01:09;98138.41;;;6.28;78.70
84760;BME280;74983;51.084;11.086;2023-12-22T21:03:34;98158.75;;;6.12;80.28
84760;BME280;74983;51.084;11.086;2023-12-22T21:06:03;98154.81;;;6.17;79.35
84760;BME280;74983;51.084;11.086;2023-12-22T21:08:29;98161.50;;;6.20;78.51
84760;BME280;74983;51.084;11.086;2023-12-22T21:10:54;98151.31;;;6.28;78.17
84760;BME280;74983;51.084;11.086;2023-12-22T21:13:20;98185.25;;;6.34;78.29
84760;BME280;74983;51.084;11.086;2023-12-22T21:15:45;98181.22;;;6.21;79.47
84760;BME280;74983;51.084;11.086;2023-12-22T21:18:10;98173.78;;;6.27;79.03
84760;BME280;74983;51.084;11.086;2023-12-22T21:20:35;98185.19;;;6.25;79.44
84760;BME280;74983;51.084;11.086;2023-12-22T21:23:01;98174.38;;;6.31;79.26
84760;BME280;74983;51.084;11.086;2023-12-22T21:25:27;98200.00;;;6.23;80.27
84760;BME280;74983;51.084;11.086;2023-12-22T21:27:53;98195.59;;;6.14;82.12
84760;BME280;74983;51.084;11.086;2023-12-22T21:30:18;98188.84;;;6.02;83.18
84760;BME280;74983;51.084;11.086;2023-12-22T21:32:43;98209.41;;;6.03;82.70
84760;BME280;74983;51.084;11.086;2023-12-22T21:35:09;98204.91;;;6.05;82.82
84760;BME280;74983;51.084;11.086;2023-12-22T21:37:34;98212.31;;;6.10;82.37
84760;BME280;74983;51.084;11.086;2023-12-22T21:40:01;98223.13;;;6.04;82.49
84760;BME280;74983;51.084;11.086;2023-12-22T21:42:29;98217.41;;;6.00;82.66
84760;BME280;74983;51.084;11.086;2023-12-22T21:44:55;98216.47;;;6.01;82.96
84760;BME280;74983;51.084;11.086;2023-12-22T21:47:20;98223.38;;;6.01;82.62
84760;BME280;74983;51.084;11.086;2023-12-22T21:49:46;98209.47;;;5.92;82.12
84760;BME280;74983;51.084;11.086;2023-12-22T21:52:11;98205.03;;;6.04;80.34
84760;BME280;74983;51.084;11.086;2023-12-22T21:54:36;98213.88;;;6.01;81.39
84760;BME280;74983;51.084;11.086;2023-12-22T21:57:02;98216.09;;;6.06;80.80
84760;BME280;74983;51.084;11.086;2023-12-22T21:59:28;98237.31;;;6.09;80.78
84760;BME280;74983;51.084;11.086;2023-12-22T22:01:53;98243.00;;;6.03;81.13
84760;BME280;74983;51.084;11.086;2023-12-22T22:04:19;98239.06;;;5.88;82.15
84760;BME280;74983;51.084;11.086;2023-12-22T22:06:44;98234.03;;;5.87;82.33
84760;BME280;74983;51.084;11.086;2023-12-22T22:09:10;98230.84;;;5.83;81.76
84760;BME280;74983;51.084;11.086;2023-12-22T22:11:39;98241.63;;;5.77;82.01
84760;BME280;74983;51.084;11.086;2023-12-22T22:14:05;98242.22;;;5.81;82.52
84760;BME280;74983;51.084;11.086;2023-12-22T22:16:30;98240.94;;;5.86;81.27
84760;BME280;74983;51.084;11.086;2023-12-22T22:18:56;98255.72;;;5.84;81.52
84760;BME280;74983;51.084;11.086;2023-12-22T22:21:21;98253.06;;;5.74;81.90
84760;BME280;74983;51.084;11.086;2023-12-22T22:23:46;98229.09;;;5.72;81.92
84760;BME280;74983;51.084;11.086;2023-12-22T22:26:12;98230.75;;;5.73;81.99
84760;BME280;74983;51.084;11.086;2023-12-22T22:28:37;98247.69;;;5.66;82.13
84760;BME280;74983;51.084;11.086;2023-12-22T22:31:06;98246.16;;;5.64;82.01
84760;BME280;74983;51.084;11.086;2023-12-22T22:33:32;98249.63;;;5.74;81.20
84760;BME280;74983;51.084;11.086;2023-12-22T22:36:00;98269.47;;;5.85;79.67
84760;BME280;74983;51.084;11.086;2023-12-22T22:38:25;98279.22;;;5.92;79.75
84760;BME280;74983;51.084;11.086;2023-12-22T22:40:50;98287.78;;;5.93;79.72
84760;BME280;74983;51.084;11.086;2023-12-22T22:43:18;98296.13;;;5.85;80.18
84760;BME280;74983;51.084;11.086;2023-12-22T22:45:44;98280.50;;;5.87;80.71
84760;BME280;74983;51.084;11.086;2023-12-22T22:48:09;98292.59;;;5.86;81.01
84760;BME280;74983;51.084;11.086;2023-12-22T22:50:34;98278.97;;;5.84;82.34
84760;BME280;74983;51.084;11.086;2023-12-22T22:53:00;98300.25;;;5.65;84.87
84760;BME280;74983;51.084;11.086;2023-12-22T22:55:26;98311.66;;;5.41;87.28
84760;BME280;74983;51.084;11.086;2023-12-22T22:57:54;98320.81;;;5.34;88.11
84760;BME280;74983;51.084;11.086;2023-12-22T23:00:19;98319.06;;;5.23;88.62
84760;BME280;74983;51.084;11.086;2023-12-22T23:02:52;98329.25;;;5.25;89.13
84760;BME280;74983;51.084;11.086;2023-12-22T23:05:18;98341.00;;;5.18;90.19
84760;BME280;74983;51.084;11.086;2023-12-22T23:07:43;98343.56;;;5.18;89.67
84760;BME280;74983;51.084;11.086;2023-12-22T23:10:09;98345.69;;;5.13;90.54
84760;BME280;74983;51.084;11.086;2023-12-22T23:12:35;98347.34;;;5.14;90.38
84760;BME280;74983;51.084;11.086;2023-12-22T23:15:00;98337.59;;;5.06;90.61
84760;BME280;74983;51.084;11.086;2023-12-22T23:17:25;98349.66;;;5.06;90.96
84760;BME280;74983;51.084;11.086;2023-12-22T23:19:52;98368.66;;;5.05;91.61
84760;BME280;74983;51.084;11.086;2023-12-22T23:22:17;98370.53;;;5.03;91.80
84760;BME280;74983;51.084;11.086;2023-12-22T23:24:42;98371.00;;;4.97;91.52
84760;BME280;74983;51.084;11.086;2023-12-22T23:27:08;98364.78;;;4.99;91.18
84760;BME280;74983;51.084;11.086;2023-12-22T23:29:33;98354.47;;;5.21;87.40
84760;BME280;74983;51.084;11.086;2023-12-22T23:31:58;98355.44;;;5.31;86.80
84760;BME280;74983;51.084;11.086;2023-12-22T23:34:24;98345.13;;;5.31;85.61
84760;BME280;74983;51.084;11.086;2023-12-22T23:36:50;98344.44;;;5.40;85.05
84760;BME280;74983;51.084;11.086;2023-12-22T23:39:16;98340.06;;;5.41;84.55
84760;BME280;74983;51.084;11.086;2023-12-22T23:41:41;98351.22;;;5.41;84.08
84760;BME280;74983;51.084;11.086;2023-12-22T23:44:07;98362.81;;;5.36;84.78
84760;BME280;74983;51.084;11.086;2023-12-22T23:46:32;98349.47;;;5.42;85.08
84760;BME280;74983;51.084;11.086;2023-12-22T23:48:57;98326.22;;;5.31;87.76
84760;BME280;74983;51.084;11.086;2023-12-22T23:51:22;98356.84;;;5.13;89.93
84760;BME280;74983;51.084;11.086;2023-12-22T23:53:48;98362.22;;;4.99;90.60
84760;BME280;74983;51.084;11.086;2023-12-22T23:56:13;98382.00;;;4.99;90.18
84760;BME280;74983;51.084;11.086;2023-12-22T23:58:39;98388.25;;;4.96;91.09
